Terminal Aerodrome Forecast
Issued by NWS

Home | Current Version | Previous Version | Graphics & Text | Print | Product List | Glossary On
Versions: 1 2 3 4 5 6 7 8 9 10 11 12
000
FTUS45 KGGW 281720
TAFSDY
TAF
KSDY 281720Z 2818/2918 27011KT P6SM SCT150
     FM282300 31009KT P6SM SCT140
     FM290500 VRB06KT P6SM SCT140=

USA.gov is the U.S. government's official web portal to all federal, state and local government web resources and services.